Time,TemperatureF,DewpointF,PressureIn,WindDirection,WindDirectionDegrees,WindSpeedMPH,WindSpeedGustMPH,Humidity,HourlyPrecipIn,Conditions,Clouds,dailyrainin,SolarRadiationWatts/m^2,SoftwareType,DateUTC
2013-02-02 00:00:00,33.8,24.1,30.27,East,99,0.0,-999.0,73,-99.99,,,0.00,0.0,cwc,2013-02-02 07:00:00,
2013-02-02 00:10:00,31.6,18.3,30.26,East,99,0.0,-999.0,63,-99.99,,,0.00,0.0,cwc,2013-02-02 07:10:00,
2013-02-02 00:15:00,32.9,20.3,30.26,East,99,0.0,-999.0,65,-99.99,,,0.00,0.0,cwc,2013-02-02 07:15:00,
2013-02-02 00:20:00,32.5,12.0,30.26,East,99,0.0,-999.0,43,-99.99,,,0.00,0.0,cwc,2013-02-02 07:20:00,
2013-02-02 00:25:00,35.5,11.7,30.26,East,99,0.0,-999.0,34,-99.99,,,0.00,0.0,cwc,2013-02-02 07:25:00,
2013-02-02 00:30:00,34.0,32.6,30.26,East,99,0.0,-999.0,96,-99.99,,,0.00,0.0,cwc,2013-02-02 07:30:00,
2013-02-02 00:35:00,32.9,26.1,30.25,East,99,0.0,-999.0,81,-99.99,,,0.00,0.0,cwc,2013-02-02 07:35:00,
2013-02-02 00:40:00,31.6,17.9,30.25,East,99,0.0,-999.0,62,-99.99,,,0.00,0.0,cwc,2013-02-02 07:40:00,
2013-02-02 00:45:00,32.9,27.9,30.25,East,99,0.0,-999.0,86,-99.99,,,0.00,0.0,cwc,2013-02-02 07:45:00,
2013-02-02 00:50:00,29.3,24.3,30.25,East,99,0.0,-999.0,86,-99.99,,,0.00,0.0,cwc,2013-02-02 07:50:00,
2013-02-02 00:55:00,28.2,7.7,30.25,East,99,0.0,-999.0,43,-99.99,,,0.00,0.0,cwc,2013-02-02 07:55:00,
2013-02-02 01:00:00,31.9,22.2,30.25,East,99,0.0,-999.0,73,-99.99,,,0.00,0.0,cwc,2013-02-02 08:00:00,
2013-02-02 01:10:00,35.2,-0.8,30.27,East,99,0.0,-999.0,0,-99.99,,,0.00,0.0,cwc,2013-02-02 08:10:00,
2013-02-02 01:15:00,35.6,35.6,30.27,East,99,0.0,-999.0,100,-99.99,,,0.00,0.0,cwc,2013-02-02 08:15:00,
2013-02-02 01:20:00,32.9,32.9,30.24,East,99,0.0,-999.0,100,-99.99,,,0.00,0.0,cwc,2013-02-02 08:20:00,
2013-02-02 01:25:00,32.2,32.2,30.24,East,99,0.0,-999.0,100,-99.99,,,0.00,0.0,cwc,2013-02-02 08:25:00,
2013-02-02 01:30:00,42.9,42.9,30.24,East,99,0.0,-999.0,100,-99.99,,,0.00,0.0,cwc,2013-02-02 08:30:00,
2013-02-02 01:35:00,37.8,37.8,30.19,East,99,0.0,-999.0,100,-99.99,,,0.00,0.0,cwc,2013-02-02 08:35:00,
2013-02-02 01:40:00,35.9,35.9,30.19,East,99,0.0,-999.0,100,-99.99,,,0.00,0.0,cwc,2013-02-02 08:40:00,
2013-02-02 01:45:00,36.2,36.2,30.19,East,99,0.0,-999.0,100,-99.99,,,0.00,0.0,cwc,2013-02-02 08:45:00,
2013-02-02 01:50:00,40.1,40.1,30.25,East,99,0.0,-999.0,100,-99.99,,,0.00,0.0,cwc,2013-02-02 08:50:00,
2013-02-02 01:55:00,40.3,40.3,30.25,East,99,0.0,-999.0,100,-99.99,,,0.00,0.0,cwc,2013-02-02 08:55:00,
2013-02-02 02:00:00,40.2,40.2,30.25,East,99,0.0,-999.0,100,-99.99,,,0.00,0.0,cwc,2013-02-02 09:00:00,
2013-02-02 02:05:00,36.6,36.6,30.24,East,99,0.0,-999.0,100,-99.99,,,0.00,0.0,cwc,2013-02-02 09:05:00,
2013-02-02 02:10:00,39.6,39.6,30.24,East,99,0.0,-999.0,100,-99.99,,,0.00,0.0,cwc,2013-02-02 09:10:00,
2013-02-02 02:15:00,37.6,37.6,30.24,East,99,0.0,-999.0,100,-99.99,,,0.00,0.0,cwc,2013-02-02 09:15:00,
2013-02-02 02:20:00,34.7,34.7,30.25,East,99,0.0,-999.0,100,-99.99,,,0.00,0.0,cwc,2013-02-02 09:20:00,
2013-02-02 02:25:00,32.1,32.1,30.25,East,99,0.0,-999.0,100,-99.99,,,0.00,0.0,cwc,2013-02-02 09:25:00,
2013-02-02 02:30:00,30.7,30.7,30.25,East,99,0.0,-999.0,100,-99.99,,,0.00,0.0,cwc,2013-02-02 09:30:00,
2013-02-02 02:35:00,31.5,31.5,30.29,East,99,0.0,-999.0,100,-99.99,,,0.00,0.0,cwc,2013-02-02 09:35:00,
2013-02-02 02:40:00,38.2,2.2,30.29,East,99,0.0,-999.0,0,-99.99,,,0.00,0.0,cwc,2013-02-02 09:40:00,
2013-02-02 02:45:00,35.5,35.5,30.29,East,99,0.0,-999.0,100,-99.99,,,0.00,0.0,cwc,2013-02-02 09:45:00,
2013-02-02 02:50:00,34.3,-1.7,30.23,East,99,0.0,-999.0,0,-99.99,,,0.00,0.0,cwc,2013-02-02 09:50:00,
2013-02-02 02:55:00,31.3,31.3,30.23,East,99,0.0,-999.0,100,-99.99,,,0.00,0.0,cwc,2013-02-02 09:55:00,
2013-02-02 03:00:00,29.8,29.8,30.23,East,99,0.0,-999.0,100,-99.99,,,0.00,0.0,cwc,2013-02-02 10:00:00,
2013-02-02 03:05:00,28.8,28.8,30.31,East,99,0.0,-999.0,100,-99.99,,,0.00,0.0,cwc,2013-02-02 10:05:00,
2013-02-02 03:10:00,31.2,31.2,30.31,East,99,0.0,-999.0,100,-99.99,,,0.00,0.0,cwc,2013-02-02 10:10:00,
2013-02-02 03:15:00,30.4,30.4,30.31,East,99,0.0,-999.0,100,-99.99,,,0.00,0.0,cwc,2013-02-02 10:15:00,
2013-02-02 03:20:00,27.6,27.6,30.30,East,99,0.0,-999.0,100,-99.99,,,0.00,0.0,cwc,2013-02-02 10:20:00,
2013-02-02 03:25:00,28.2,28.2,30.30,East,99,0.0,-999.0,100,-99.99,,,0.00,0.0,cwc,2013-02-02 10:25:00,
2013-02-02 03:30:00,30.4,30.4,30.30,East,99,0.0,-999.0,100,-99.99,,,0.00,0.0,cwc,2013-02-02 10:30:00,
2013-02-02 03:35:00,32.4,32.4,30.30,East,99,0.0,-999.0,100,-99.99,,,0.00,0.0,cwc,2013-02-02 10:35:00,
2013-02-02 03:40:00,30.3,-5.7,30.30,East,99,0.0,-999.0,0,-99.99,,,0.00,0.0,cwc,2013-02-02 10:40:00,
2013-02-02 03:45:00,31.0,-5.0,30.30,East,99,0.0,-999.0,0,-99.99,,,0.00,0.0,cwc,2013-02-02 10:45:00,
2013-02-02 03:50:00,28.5,-7.5,30.33,East,99,0.0,-999.0,0,-99.99,,,0.00,0.0,cwc,2013-02-02 10:50:00,
2013-02-02 03:55:00,27.8,-8.2,30.33,East,99,0.0,-999.0,0,-99.99,,,0.00,0.0,cwc,2013-02-02 10:55:00,
2013-02-02 04:00:00,27.8,-8.2,30.33,East,99,0.0,-999.0,0,-99.99,,,0.00,0.0,cwc,2013-02-02 11:00:00,
2013-02-02 04:05:00,26.6,-9.4,30.36,East,99,0.0,-999.0,0,-99.99,,,0.00,0.0,cwc,2013-02-02 11:05:00,
2013-02-02 04:10:00,30.9,-5.1,30.36,East,99,0.0,-999.0,0,-99.99,,,0.00,0.0,cwc,2013-02-02 11:10:00,
2013-02-02 04:15:00,29.5,-6.5,30.36,East,99,0.0,-999.0,0,-99.99,,,0.00,0.0,cwc,2013-02-02 11:15:00,
2013-02-02 04:20:00,28.2,-7.8,30.35,East,99,0.0,-999.0,0,-99.99,,,0.00,0.0,cwc,2013-02-02 11:20:00,
2013-02-02 04:25:00,32.9,-3.1,30.35,East,99,0.0,-999.0,0,-99.99,,,0.00,0.0,cwc,2013-02-02 11:25:00,
2013-02-02 04:30:00,32.1,32.1,30.35,East,99,0.0,-999.0,100,-99.99,,,0.00,0.0,cwc,2013-02-02 11:30:00,
2013-02-02 04:35:00,29.5,29.5,30.32,East,99,0.0,-999.0,100,-99.99,,,0.00,0.0,cwc,2013-02-02 11:35:00,
2013-02-02 04:40:00,28.8,28.8,30.32,East,99,0.0,-999.0,100,-99.99,,,0.00,0.0,cwc,2013-02-02 11:40:00,
2013-02-02 04:45:00,27.9,27.9,30.32,East,99,0.0,-999.0,100,-99.99,,,0.00,0.0,cwc,2013-02-02 11:45:00,
2013-02-02 04:50:00,26.3,26.3,30.35,East,99,0.0,-999.0,100,-99.99,,,0.00,0.0,cwc,2013-02-02 11:50:00,
2013-02-02 04:55:00,25.0,-11.0,30.35,East,99,0.0,-999.0,0,-99.99,,,0.00,0.0,cwc,2013-02-02 11:55:00,
2013-02-02 05:00:00,26.1,26.1,30.35,East,99,0.0,-999.0,100,-99.99,,,0.00,0.0,cwc,2013-02-02 12:00:00,
2013-02-02 05:05:00,30.1,30.1,30.36,East,99,0.0,-999.0,100,-99.99,,,0.00,0.0,cwc,2013-02-02 12:05:00,
2013-02-02 05:10:00,31.9,31.9,30.36,East,99,0.0,-999.0,100,-99.99,,,0.00,0.0,cwc,2013-02-02 12:10:00,
2013-02-02 05:15:00,27.5,27.5,30.36,East,99,0.0,-999.0,100,-99.99,,,0.00,0.0,cwc,2013-02-02 12:15:00,
2013-02-02 05:20:00,25.4,-10.6,30.36,East,99,0.0,-999.0,0,-99.99,,,0.00,0.0,cwc,2013-02-02 12:20:00,
2013-02-02 05:25:00,27.6,-8.4,30.36,East,99,0.0,-999.0,0,-99.99,,,0.00,0.0,cwc,2013-02-02 12:25:00,
2013-02-02 05:30:00,27.5,-8.5,30.36,East,99,0.0,-999.0,0,-99.99,,,0.00,0.0,cwc,2013-02-02 12:30:00,
2013-02-02 05:35:00,25.3,15.9,30.41,East,99,0.0,-999.0,74,-99.99,,,0.00,0.0,cwc,2013-02-02 12:35:00,
2013-02-02 05:40:00,24.2,14.5,30.41,East,99,0.0,-999.0,73,-99.99,,,0.00,0.0,cwc,2013-02-02 12:40:00,
2013-02-02 05:45:00,23.3,9.6,30.41,East,99,0.0,-999.0,62,-99.99,,,0.00,0.0,cwc,2013-02-02 12:45:00,
2013-02-02 05:50:00,22.4,6.6,30.43,East,99,0.0,-999.0,56,-99.99,,,0.00,0.0,cwc,2013-02-02 12:50:00,
2013-02-02 05:55:00,21.6,3.2,30.43,East,99,0.0,-999.0,49,-99.99,,,0.00,0.0,cwc,2013-02-02 12:55:00,
2013-02-02 06:00:00,23.3,8.5,30.43,East,99,0.0,-999.0,59,-99.99,,,0.00,0.0,cwc,2013-02-02 13:00:00,
2013-02-02 06:05:00,24.2,10.9,30.43,East,99,0.0,-999.0,63,-99.99,,,0.00,0.0,cwc,2013-02-02 13:05:00,
2013-02-02 06:10:00,23.6,-12.4,30.43,East,99,0.0,-999.0,0,-99.99,,,0.00,0.0,cwc,2013-02-02 13:10:00,
2013-02-02 06:15:00,22.4,-11.1,30.43,East,99,0.0,-999.0,7,-99.99,,,0.00,0.0,cwc,2013-02-02 13:15:00,
2013-02-02 06:20:00,25.1,-8.4,30.51,East,99,0.0,-999.0,7,-99.99,,,0.00,0.0,cwc,2013-02-02 13:20:00,
2013-02-02 06:25:00,23.6,-12.4,30.51,East,99,0.0,-999.0,0,-99.99,,,0.00,0.0,cwc,2013-02-02 13:25:00,
2013-02-02 06:30:00,23.2,-12.4,30.51,East,99,0.0,-999.0,1,-99.99,,,0.00,0.0,cwc,2013-02-02 13:30:00,
2013-02-02 06:35:00,27.8,-8.2,30.52,East,99,0.0,-999.0,0,-99.99,,,0.00,0.0,cwc,2013-02-02 13:35:00,
2013-02-02 06:40:00,26.7,26.7,30.52,East,99,0.0,-999.0,100,-99.99,,,0.00,0.0,cwc,2013-02-02 13:40:00,
2013-02-02 06:45:00,31.5,31.5,30.52,East,99,0.0,-999.0,100,-99.99,,,0.00,0.0,cwc,2013-02-02 13:45:00,
2013-02-02 06:50:00,30.1,30.1,30.44,East,99,0.0,-999.0,100,-99.99,,,0.00,0.0,cwc,2013-02-02 13:50:00,
2013-02-02 06:55:00,34.3,34.3,30.44,East,99,0.0,-999.0,100,-99.99,,,0.00,0.0,cwc,2013-02-02 13:55:00,
2013-02-02 07:00:00,29.1,-6.9,30.44,East,99,0.0,-999.0,0,-99.99,,,0.00,0.0,cwc,2013-02-02 14:00:00,
2013-02-02 07:05:00,29.8,-6.2,30.49,East,99,0.0,-999.0,0,-99.99,,,0.00,0.0,cwc,2013-02-02 14:05:00,
2013-02-02 07:10:00,28.5,-7.5,30.49,East,99,0.0,-999.0,0,-99.99,,,0.00,0.0,cwc,2013-02-02 14:10:00,
2013-02-02 07:15:00,25.3,-10.7,30.49,East,99,0.0,-999.0,0,-99.99,,,0.00,0.0,cwc,2013-02-02 14:15:00,
2013-02-02 07:20:00,23.2,8.8,30.52,East,99,0.0,-999.0,60,-99.99,,,0.00,0.0,cwc,2013-02-02 14:20:00,
2013-02-02 07:25:00,22.2,4.9,30.52,East,99,0.0,-999.0,52,-99.99,,,0.00,0.0,cwc,2013-02-02 14:25:00,
2013-02-02 07:30:00,21.9,3.5,30.52,East,99,0.0,-999.0,49,-99.99,,,0.00,0.0,cwc,2013-02-02 14:30:00,
2013-02-02 07:35:00,24.5,6.5,30.54,East,99,0.0,-999.0,50,-99.99,,,0.00,0.0,cwc,2013-02-02 14:35:00,
2013-02-02 07:40:00,23.6,6.0,30.54,East,99,0.0,-999.0,51,-99.99,,,0.00,0.0,cwc,2013-02-02 14:40:00,
2013-02-02 07:45:00,22.9,6.3,30.54,East,99,0.0,-999.0,54,-99.99,,,0.00,0.0,cwc,2013-02-02 14:45:00,
2013-02-02 07:50:00,24.1,7.2,30.54,East,99,0.0,-999.0,53,-99.99,,,0.00,0.0,cwc,2013-02-02 14:50:00,
2013-02-02 07:55:00,22.5,5.6,30.54,East,99,0.0,-999.0,53,-99.99,,,0.00,0.0,cwc,2013-02-02 14:55:00,
2013-02-02 08:00:00,22.7,6.1,30.54,East,99,0.0,-999.0,54,-99.99,,,0.00,0.0,cwc,2013-02-02 15:00:00,
2013-02-02 08:05:00,23.5,8.7,30.53,East,99,0.0,-999.0,59,-99.99,,,0.00,0.0,cwc,2013-02-02 15:05:00,
2013-02-02 08:15:00,24.8,12.9,30.53,East,99,0.0,-999.0,67,-99.99,,,0.00,0.0,cwc,2013-02-02 15:15:00,
2013-02-02 08:20:00,26.9,16.1,30.52,East,99,0.0,-999.0,70,-99.99,,,0.00,0.0,cwc,2013-02-02 15:20:00,
2013-02-02 08:25:00,24.5,12.6,30.52,East,99,0.0,-999.0,67,-99.99,,,0.00,0.0,cwc,2013-02-02 15:25:00,
2013-02-02 08:30:00,24.1,10.8,30.52,East,99,0.0,-999.0,63,-99.99,,,0.00,0.0,cwc,2013-02-02 15:30:00,
2013-02-02 08:35:00,24.2,10.2,30.53,East,99,0.0,-999.0,61,-99.99,,,0.00,0.0,cwc,2013-02-02 15:35:00,
2013-02-02 08:40:00,24.4,-11.6,30.53,East,99,0.0,-999.0,0,-99.99,,,0.00,0.0,cwc,2013-02-02 15:40:00,
2013-02-02 08:45:00,25.4,-10.6,30.53,East,85,0.0,-999.0,0,-99.99,,,0.00,0.0,cwc,2013-02-02 15:45:00,
2013-02-02 08:50:00,26.3,26.3,30.53,East,85,0.0,-999.0,100,-99.99,,,0.00,0.0,cwc,2013-02-02 15:50:00,
2013-02-02 08:55:00,26.4,26.4,30.53,East,85,0.0,-999.0,100,-99.99,,,0.00,0.0,cwc,2013-02-02 15:55:00,
2013-02-02 09:00:00,27.0,27.0,30.53,East,85,4.0,-999.0,100,-99.99,,,0.00,0.0,cwc,2013-02-02 16:00:00,
2013-02-02 09:05:00,27.6,27.6,30.49,East,90,4.0,-999.0,100,-99.99,,,0.00,0.0,cwc,2013-02-02 16:05:00,
2013-02-02 09:10:00,27.8,27.8,30.49,NNE,30,6.0,-999.0,100,-99.99,,,0.00,0.0,cwc,2013-02-02 16:10:00,
2013-02-02 09:15:00,28.8,28.8,30.49,ENE,73,4.0,-999.0,100,-99.99,,,0.00,0.0,cwc,2013-02-02 16:15:00,
2013-02-02 09:20:00,28.8,28.8,30.50,East,80,2.0,-999.0,100,-99.99,,,0.00,0.0,cwc,2013-02-02 16:20:00,
2013-02-02 09:25:00,29.4,29.4,30.50,East,88,6.0,-999.0,100,-99.99,,,0.00,0.0,cwc,2013-02-02 16:25:00,
2013-02-02 09:30:00,29.7,-6.3,30.50,East,85,2.0,-999.0,0,-99.99,,,0.00,0.0,cwc,2013-02-02 16:30:00,
2013-02-02 09:35:00,30.1,-5.9,30.51,ENE,62,2.0,-999.0,0,-99.99,,,0.00,0.0,cwc,2013-02-02 16:35:00,
2013-02-02 09:40:00,30.4,-5.6,30.51,ENE,62,2.0,-999.0,0,-99.99,,,0.00,0.0,cwc,2013-02-02 16:40:00,
2013-02-02 09:45:00,31.9,24.0,30.51,ENE,62,1.0,-999.0,78,-99.99,,,0.00,0.0,cwc,2013-02-02 16:45:00,
2013-02-02 09:50:00,32.4,19.4,30.47,ENE,62,0.0,-999.0,64,-99.99,,,0.00,0.0,cwc,2013-02-02 16:50:00,
2013-02-02 09:55:00,32.7,19.0,30.47,North,4,6.0,-999.0,62,-99.99,,,0.00,0.0,cwc,2013-02-02 16:55:00,
2013-02-02 10:00:00,32.1,13.0,30.47,NNE,30,4.0,-999.0,47,-99.99,,,0.00,0.0,cwc,2013-02-02 17:00:00,
2013-02-02 10:05:00,32.7,8.9,30.48,NE,40,4.0,-999.0,34,-99.99,,,0.00,0.0,cwc,2013-02-02 17:05:00,
2013-02-02 10:10:00,32.8,6.5,30.48,NE,42,6.0,-999.0,27,-99.99,,,0.00,0.0,cwc,2013-02-02 17:10:00,
2013-02-02 10:15:00,33.5,5.8,30.48,NNE,25,6.0,-999.0,23,-99.99,,,0.00,0.0,cwc,2013-02-02 17:15:00,
2013-02-02 10:20:00,34.6,4.7,30.37,NNE,25,7.0,-999.0,17,-99.99,,,0.00,0.0,cwc,2013-02-02 17:20:00,
2013-02-02 10:25:00,35.6,5.7,30.37,NNE,13,7.0,-999.0,17,-99.99,,,0.00,0.0,cwc,2013-02-02 17:25:00,
2013-02-02 10:30:00,36.5,7.0,30.37,NNE,27,10.0,-999.0,18,-99.99,,,0.00,0.0,cwc,2013-02-02 17:30:00,
2013-02-02 10:35:00,36.9,8.1,30.40,NNE,27,6.0,-999.0,20,-99.99,,,0.00,0.0,cwc,2013-02-02 17:35:00,
2013-02-02 10:40:00,37.2,8.4,30.40,NE,47,10.0,-999.0,20,-99.99,,,0.00,0.0,cwc,2013-02-02 17:40:00,
2013-02-02 10:45:00,37.6,9.5,30.40,NNE,32,9.0,-999.0,22,-99.99,,,0.00,0.0,cwc,2013-02-02 17:45:00,
2013-02-02 10:55:00,38.9,11.2,30.38,NE,49,6.0,-999.0,23,-99.99,,,0.00,0.0,cwc,2013-02-02 17:55:00,
2013-02-02 11:00:00,39.3,11.6,30.38,ENE,72,7.0,-999.0,23,-99.99,,,0.00,0.0,cwc,2013-02-02 18:00:00,
2013-02-02 11:05:00,39.8,11.7,30.36,NE,52,2.0,-999.0,22,-99.99,,,0.00,0.0,cwc,2013-02-02 18:05:00,
2013-02-02 11:10:00,40.2,21.8,30.36,NNE,16,6.0,-999.0,49,-99.99,,,0.00,0.0,cwc,2013-02-02 18:10:00,
2013-02-02 11:15:00,40.8,21.7,30.36,NE,45,6.0,-999.0,47,-99.99,,,0.00,0.0,cwc,2013-02-02 18:15:00,
2013-02-02 11:20:00,40.9,21.8,30.39,NE,44,7.0,-999.0,47,-99.99,,,0.00,0.0,cwc,2013-02-02 18:20:00,
2013-02-02 11:25:00,41.5,22.1,30.39,NE,37,6.0,-999.0,46,-99.99,,,0.00,0.0,cwc,2013-02-02 18:25:00,
2013-02-02 11:30:00,42.2,22.4,30.39,ENE,59,7.0,-999.0,45,-99.99,,,0.00,0.0,cwc,2013-02-02 18:30:00,
2013-02-02 11:35:00,42.5,22.7,30.38,NE,55,8.0,-999.0,45,-99.99,,,0.00,0.0,cwc,2013-02-02 18:35:00,
2013-02-02 11:40:00,42.8,22.3,30.38,NE,40,7.0,-999.0,43,-99.99,,,0.00,0.0,cwc,2013-02-02 18:40:00,
2013-02-02 11:45:00,43.6,22.4,30.38,NE,37,4.0,-999.0,41,-99.99,,,0.00,0.0,cwc,2013-02-02 18:45:00,
2013-02-02 11:50:00,44.3,22.3,30.36,NE,37,6.0,-999.0,39,-99.99,,,0.00,0.0,cwc,2013-02-02 18:50:00,
2013-02-02 11:55:00,44.6,22.6,30.36,NNE,23,9.0,-999.0,39,-99.99,,,0.00,0.0,cwc,2013-02-02 18:55:00,
2013-02-02 12:00:00,44.3,22.0,30.36,NE,56,10.0,-999.0,38,-99.99,,,0.00,0.0,cwc,2013-02-02 19:00:00,
2013-02-02 12:05:00,44.6,22.3,30.36,NNE,21,8.0,-999.0,38,-99.99,,,0.00,0.0,cwc,2013-02-02 19:05:00,
2013-02-02 12:10:00,44.6,21.6,30.36,NNE,32,8.0,-999.0,36,-99.99,,,0.00,0.0,cwc,2013-02-02 19:10:00,
2013-02-02 12:15:00,45.4,22.0,30.36,NE,42,0.0,-999.0,35,-99.99,,,0.00,0.0,cwc,2013-02-02 19:15:00,
2013-02-02 12:20:00,46.1,21.6,30.30,NE,47,4.0,-999.0,32,-99.99,,,0.00,0.0,cwc,2013-02-02 19:20:00,
2013-02-02 12:25:00,46.2,21.0,30.30,ENE,61,6.0,-999.0,30,-99.99,,,0.00,0.0,cwc,2013-02-02 19:25:00,
2013-02-02 12:30:00,46.7,21.5,30.30,NNE,20,4.0,-999.0,30,-99.99,,,0.00,0.0,cwc,2013-02-02 19:30:00,
2013-02-02 12:35:00,46.7,20.8,30.29,NNE,17,1.0,-999.0,28,-99.99,,,0.00,0.0,cwc,2013-02-02 19:35:00,
2013-02-02 12:40:00,46.5,20.2,30.29,NNE,32,8.0,-999.0,27,-99.99,,,0.00,0.0,cwc,2013-02-02 19:40:00,
2013-02-02 12:45:00,47.3,21.0,30.29,NE,42,2.0,-999.0,27,-99.99,,,0.00,0.0,cwc,2013-02-02 19:45:00,
2013-02-02 12:50:00,47.7,21.4,30.27,NE,42,0.0,-999.0,27,-99.99,,,0.00,0.0,cwc,2013-02-02 19:50:00,
2013-02-02 12:55:00,48.3,22.0,30.27,North,0,0.0,-999.0,27,-99.99,,,0.00,0.0,cwc,2013-02-02 19:55:00,
2013-02-02 13:00:00,48.5,21.9,30.27,NNE,31,6.0,-999.0,26,-99.99,,,0.00,0.0,cwc,2013-02-02 20:00:00,
2013-02-02 13:05:00,48.6,22.3,30.26,ENE,59,0.0,-999.0,27,-99.99,,,0.00,0.0,cwc,2013-02-02 20:05:00,
2013-02-02 13:10:00,48.8,22.5,30.26,ENE,73,0.0,-999.0,27,-99.99,,,0.00,0.0,cwc,2013-02-02 20:10:00,
2013-02-02 13:15:00,48.6,22.3,30.26,NE,42,4.0,-999.0,27,-99.99,,,0.00,0.0,cwc,2013-02-02 20:15:00,
2013-02-02 13:20:00,48.6,22.0,30.26,NE,41,10.0,-999.0,26,-99.99,,,0.00,0.0,cwc,2013-02-02 20:20:00,
2013-02-02 13:25:00,49.1,22.5,30.26,ENE,71,7.0,-999.0,26,-99.99,,,0.00,0.0,cwc,2013-02-02 20:25:00,
2013-02-02 13:30:00,49.6,22.6,30.26,NNE,31,0.0,-999.0,25,-99.99,,,0.00,0.0,cwc,2013-02-02 20:30:00,
2013-02-02 13:35:00,49.5,22.5,30.25,NE,54,2.0,-999.0,25,-99.99,,,0.00,0.0,cwc,2013-02-02 20:35:00,
2013-02-02 13:40:00,49.5,22.1,30.25,NNE,24,0.0,-999.0,24,-99.99,,,0.00,0.0,cwc,2013-02-02 20:40:00,
2013-02-02 13:45:00,49.6,21.9,30.25,NNE,21,2.0,-999.0,23,-99.99,,,0.00,0.0,cwc,2013-02-02 20:45:00,
2013-02-02 13:50:00,49.9,22.2,30.25,NNE,25,2.0,-999.0,23,-99.99,,,0.00,0.0,cwc,2013-02-02 20:50:00,
2013-02-02 13:55:00,50.2,22.5,30.25,NE,38,2.0,-999.0,23,-99.99,,,0.00,0.0,cwc,2013-02-02 20:55:00,
2013-02-02 14:00:00,50.4,22.7,30.25,NE,37,0.0,-999.0,23,-99.99,,,0.00,0.0,cwc,2013-02-02 21:00:00,
2013-02-02 14:05:00,50.2,21.8,30.24,NE,48,6.0,-999.0,21,-99.99,,,0.00,0.0,cwc,2013-02-02 21:05:00,
2013-02-02 14:10:00,50.8,22.7,30.24,NE,49,7.0,-999.0,22,-99.99,,,0.00,0.0,cwc,2013-02-02 21:10:00,
2013-02-02 14:15:00,50.5,21.7,30.24,NE,55,0.0,-999.0,20,-99.99,,,0.00,0.0,cwc,2013-02-02 21:15:00,
2013-02-02 14:20:00,50.7,21.9,30.28,ENE,61,0.0,-999.0,20,-99.99,,,0.00,0.0,cwc,2013-02-02 21:20:00,
2013-02-02 14:25:00,50.8,22.4,30.28,NE,42,2.0,-999.0,21,-99.99,,,0.00,0.0,cwc,2013-02-02 21:25:00,
2013-02-02 14:30:00,52.3,23.9,30.28,NE,42,0.0,-999.0,21,-99.99,,,0.00,0.0,cwc,2013-02-02 21:30:00,
2013-02-02 14:35:00,52.8,23.6,30.26,NE,42,0.0,-999.0,19,-99.99,,,0.00,0.0,cwc,2013-02-02 21:35:00,
2013-02-02 14:40:00,52.6,23.4,30.26,NE,42,2.0,-999.0,19,-99.99,,,0.00,0.0,cwc,2013-02-02 21:40:00,
2013-02-02 14:45:00,54.5,25.7,30.26,NE,42,0.0,-999.0,20,-99.99,,,0.00,0.0,cwc,2013-02-02 21:45:00,
2013-02-02 14:50:00,53.1,23.9,30.26,NE,42,0.0,-999.0,19,-99.99,,,0.00,0.0,cwc,2013-02-02 21:50:00,
2013-02-02 14:55:00,53.2,24.0,30.26,NE,42,0.0,-999.0,19,-99.99,,,0.00,0.0,cwc,2013-02-02 21:55:00,
2013-02-02 15:00:00,57.0,29.3,30.26,NE,42,0.0,-999.0,23,-99.99,,,0.00,0.0,cwc,2013-02-02 22:00:00,
2013-02-02 15:05:00,54.5,25.7,30.24,NE,42,0.0,-999.0,20,-99.99,,,0.00,0.0,cwc,2013-02-02 22:05:00,
2013-02-02 15:10:00,54.2,25.4,30.24,NE,42,0.0,-999.0,20,-99.99,,,0.00,0.0,cwc,2013-02-02 22:10:00,
2013-02-02 15:15:00,54.2,25.8,30.24,NE,42,0.0,-999.0,21,-99.99,,,0.00,0.0,cwc,2013-02-02 22:15:00,
2013-02-02 15:20:00,55.1,26.3,30.27,NE,42,0.0,-999.0,20,-99.99,,,0.00,0.0,cwc,2013-02-02 22:20:00,
2013-02-02 15:25:00,54.2,25.4,30.27,NE,42,0.0,-999.0,20,-99.99,,,0.00,0.0,cwc,2013-02-02 22:25:00,
2013-02-02 15:30:00,54.2,25.8,30.27,NE,42,0.0,-999.0,21,-99.99,,,0.00,0.0,cwc,2013-02-02 22:30:00,
2013-02-02 15:35:00,53.9,25.1,30.26,NE,42,0.0,-999.0,20,-99.99,,,0.00,0.0,cwc,2013-02-02 22:35:00,
2013-02-02 15:40:00,53.8,24.6,30.26,ENE,61,0.0,-999.0,19,-99.99,,,0.00,0.0,cwc,2013-02-02 22:40:00,
2013-02-02 15:45:00,53.6,24.8,30.26,ENE,61,0.0,-999.0,20,-99.99,,,0.00,0.0,cwc,2013-02-02 22:45:00,
2013-02-02 15:50:00,54.4,25.2,30.26,ENE,61,0.0,-999.0,19,-99.99,,,0.00,0.0,cwc,2013-02-02 22:50:00,
2013-02-02 15:55:00,53.9,25.1,30.26,ENE,61,0.0,-999.0,20,-99.99,,,0.00,0.0,cwc,2013-02-02 22:55:00,
2013-02-02 16:00:00,54.4,27.0,30.26,ENE,61,0.0,-999.0,24,-99.99,,,0.00,0.0,cwc,2013-02-02 23:00:00,
2013-02-02 16:05:00,54.1,24.9,30.25,ENE,61,0.0,-999.0,19,-99.99,,,0.00,0.0,cwc,2013-02-02 23:05:00,
2013-02-02 16:10:00,54.4,25.2,30.25,ENE,61,0.0,-999.0,19,-99.99,,,0.00,0.0,cwc,2013-02-02 23:10:00,
2013-02-02 16:15:00,54.5,26.1,30.25,ENE,61,0.0,-999.0,21,-99.99,,,0.00,0.0,cwc,2013-02-02 23:15:00,
2013-02-02 16:20:00,54.1,24.9,30.22,ENE,61,0.0,-999.0,19,-99.99,,,0.00,0.0,cwc,2013-02-02 23:20:00,
2013-02-02 16:25:00,53.9,25.5,30.22,ENE,61,0.0,-999.0,21,-99.99,,,0.00,0.0,cwc,2013-02-02 23:25:00,
2013-02-02 16:30:00,54.7,25.9,30.22,ENE,61,0.0,-999.0,20,-99.99,,,0.00,0.0,cwc,2013-02-02 23:30:00,
2013-02-02 16:35:00,54.5,28.2,30.22,ENE,61,0.0,-999.0,27,-99.99,,,0.00,0.0,cwc,2013-02-02 23:35:00,
2013-02-02 16:40:00,56.6,38.2,30.22,ENE,61,0.0,-999.0,49,-99.99,,,0.00,0.0,cwc,2013-02-02 23:40:00,
2013-02-02 16:45:00,56.6,27.8,30.22,ENE,61,0.0,-999.0,20,-99.99,,,0.00,0.0,cwc,2013-02-02 23:45:00,
2013-02-02 16:50:00,58.4,30.3,30.20,ENE,61,0.0,-999.0,22,-99.99,,,0.00,0.0,cwc,2013-02-02 23:50:00,
2013-02-02 16:55:00,56.9,41.4,30.20,ENE,61,0.0,-999.0,57,-99.99,,,0.00,0.0,cwc,2013-02-02 23:55:00,
2013-02-02 17:00:00,57.2,39.9,30.20,ENE,61,0.0,-999.0,52,-99.99,,,0.00,0.0,cwc,2013-02-03 00:00:00,
2013-02-02 17:05:00,54.1,27.8,30.18,ENE,61,2.0,-999.0,27,-99.99,,,0.00,0.0,cwc,2013-02-03 00:05:00,
2013-02-02 17:10:00,53.1,28.6,30.18,ENE,61,4.0,-999.0,32,-99.99,,,0.00,0.0,cwc,2013-02-03 00:10:00,
2013-02-02 17:15:00,52.3,26.4,30.18,ENE,62,2.0,-999.0,28,-99.99,,,0.00,0.0,cwc,2013-02-03 00:15:00,
2013-02-02 17:20:00,51.0,25.1,30.30,ENE,64,0.0,-999.0,28,-99.99,,,0.00,0.0,cwc,2013-02-03 00:20:00,
2013-02-02 17:25:00,50.8,29.6,30.30,ENE,64,0.0,-999.0,41,-99.99,,,0.00,0.0,cwc,2013-02-03 00:25:00,
2013-02-02 17:30:00,48.6,23.0,30.30,ENE,64,0.0,-999.0,29,-99.99,,,0.00,0.0,cwc,2013-02-03 00:30:00,
2013-02-02 17:35:00,46.7,21.5,30.31,ENE,64,0.0,-999.0,30,-99.99,,,0.00,0.0,cwc,2013-02-03 00:35:00,
2013-02-02 17:40:00,45.1,21.0,30.31,ENE,64,0.0,-999.0,33,-99.99,,,0.00,0.0,cwc,2013-02-03 00:40:00,
2013-02-02 17:45:00,44.1,19.6,30.31,ENE,64,0.0,-999.0,32,-99.99,,,0.00,0.0,cwc,2013-02-03 00:45:00,
2013-02-02 17:50:00,45.4,21.3,30.36,ENE,64,0.0,-999.0,33,-99.99,,,0.00,0.0,cwc,2013-02-03 00:50:00,
2013-02-02 17:55:00,46.8,32.0,30.36,ENE,64,0.0,-999.0,59,-99.99,,,0.00,0.0,cwc,2013-02-03 00:55:00,
2013-02-02 18:00:00,43.6,20.9,30.36,ENE,64,2.0,-999.0,37,-99.99,,,0.00,0.0,cwc,2013-02-03 01:00:00,
2013-02-02 18:05:00,43.1,19.7,30.36,ENE,75,0.0,-999.0,35,-99.99,,,0.00,0.0,cwc,2013-02-03 01:05:00,
2013-02-02 18:10:00,42.5,23.4,30.36,ENE,75,2.0,-999.0,47,-99.99,,,0.00,0.0,cwc,2013-02-03 01:10:00,
2013-02-02 18:15:00,41.3,17.9,30.36,ENE,75,2.0,-999.0,35,-99.99,,,0.00,0.0,cwc,2013-02-03 01:15:00,
2013-02-02 18:20:00,40.6,17.9,30.36,ENE,75,1.0,-999.0,37,-99.99,,,0.00,0.0,cwc,2013-02-03 01:20:00,
2013-02-02 18:25:00,40.1,17.8,30.36,ENE,75,0.0,-999.0,38,-99.99,,,0.00,0.0,cwc,2013-02-03 01:25:00,
2013-02-02 18:30:00,39.9,17.9,30.36,ENE,75,0.0,-999.0,39,-99.99,,,0.00,0.0,cwc,2013-02-03 01:30:00,
2013-02-02 18:35:00,39.2,17.6,30.36,ENE,75,0.0,-999.0,40,-99.99,,,0.00,0.0,cwc,2013-02-03 01:35:00,
2013-02-02 18:40:00,38.5,19.1,30.36,ENE,75,0.0,-999.0,46,-99.99,,,0.00,0.0,cwc,2013-02-03 01:40:00,
2013-02-02 18:45:00,38.2,20.9,30.36,ENE,75,0.0,-999.0,52,-99.99,,,0.00,0.0,cwc,2013-02-03 01:45:00,
2013-02-02 18:50:00,44.1,8.1,30.37,ENE,75,0.0,-999.0,0,-99.99,,,0.00,0.0,cwc,2013-02-03 01:50:00,
2013-02-02 18:55:00,40.5,26.5,30.37,ENE,75,0.0,-999.0,61,-99.99,,,0.00,0.0,cwc,2013-02-03 01:55:00,
2013-02-02 19:00:00,38.6,23.5,30.37,ENE,75,0.0,-999.0,58,-99.99,,,0.00,0.0,cwc,2013-02-03 02:00:00,
2013-02-02 19:05:00,37.8,19.8,30.38,ENE,75,0.0,-999.0,50,-99.99,,,0.00,0.0,cwc,2013-02-03 02:05:00,
2013-02-02 19:10:00,39.1,25.8,30.38,ENE,75,0.0,-999.0,63,-99.99,,,0.00,0.0,cwc,2013-02-03 02:10:00,
2013-02-02 19:15:00,38.2,23.1,30.38,ENE,75,0.0,-999.0,58,-99.99,,,0.00,0.0,cwc,2013-02-03 02:15:00,
2013-02-02 19:20:00,37.6,22.5,30.42,ENE,75,0.0,-999.0,58,-99.99,,,0.00,0.0,cwc,2013-02-03 02:20:00,
2013-02-02 19:25:00,42.5,27.4,30.42,ENE,75,0.0,-999.0,58,-99.99,,,0.00,0.0,cwc,2013-02-03 02:25:00,
2013-02-02 19:30:00,42.6,42.6,30.42,ENE,75,0.0,-999.0,100,-99.99,,,0.00,0.0,cwc,2013-02-03 02:30:00,
2013-02-02 19:35:00,36.8,0.8,30.38,ENE,75,0.0,-999.0,0,-99.99,,,0.00,0.0,cwc,2013-02-03 02:35:00,
2013-02-02 19:40:00,35.5,-0.5,30.38,ENE,75,0.0,-999.0,0,-99.99,,,0.00,0.0,cwc,2013-02-03 02:40:00,
2013-02-02 19:45:00,34.9,-1.1,30.38,ENE,75,0.0,-999.0,0,-99.99,,,0.00,0.0,cwc,2013-02-03 02:45:00,
2013-02-02 19:50:00,34.0,-2.0,30.47,ENE,75,0.0,-999.0,0,-99.99,,,0.00,0.0,cwc,2013-02-03 02:50:00,
2013-02-02 19:55:00,34.1,-1.9,30.47,ENE,75,0.0,-999.0,0,-99.99,,,0.00,0.0,cwc,2013-02-03 02:55:00,
2013-02-02 20:00:00,33.4,-2.6,30.47,ENE,75,0.0,-999.0,0,-99.99,,,0.00,0.0,cwc,2013-02-03 03:00:00,
2013-02-02 20:05:00,33.2,-2.8,30.49,ENE,75,0.0,-999.0,0,-99.99,,,0.00,0.0,cwc,2013-02-03 03:05:00,
2013-02-02 20:10:00,34.1,-1.9,30.49,ENE,75,0.0,-999.0,0,-99.99,,,0.00,0.0,cwc,2013-02-03 03:10:00,
2013-02-02 20:15:00,33.2,-2.8,30.49,ENE,75,0.0,-999.0,0,-99.99,,,0.00,0.0,cwc,2013-02-03 03:15:00,
2013-02-02 20:20:00,35.5,29.7,30.42,ENE,75,0.0,-999.0,84,-99.99,,,0.00,0.0,cwc,2013-02-03 03:20:00,
2013-02-02 20:25:00,34.9,26.6,30.42,ENE,75,0.0,-999.0,77,-99.99,,,0.00,0.0,cwc,2013-02-03 03:25:00,
2013-02-02 20:30:00,36.5,28.2,30.42,ENE,75,0.0,-999.0,77,-99.99,,,0.00,0.0,cwc,2013-02-03 03:30:00,
2013-02-02 20:35:00,33.2,26.0,30.42,ENE,75,0.0,-999.0,80,-99.99,,,0.00,0.0,cwc,2013-02-03 03:35:00,
2013-02-02 20:40:00,34.9,27.7,30.42,ENE,75,0.0,-999.0,80,-99.99,,,0.00,0.0,cwc,2013-02-03 03:40:00,
2013-02-02 20:45:00,35.0,20.6,30.42,ENE,75,0.0,-999.0,60,-99.99,,,0.00,0.0,cwc,2013-02-03 03:45:00,
2013-02-02 20:50:00,32.7,28.7,30.44,ENE,75,0.0,-999.0,89,-99.99,,,0.00,0.0,cwc,2013-02-03 03:50:00,
2013-02-02 20:55:00,31.6,25.1,30.44,ENE,75,0.0,-999.0,82,-99.99,,,0.00,0.0,cwc,2013-02-03 03:55:00,
2013-02-02 21:00:00,32.5,26.4,30.44,ENE,75,0.0,-999.0,83,-99.99,,,0.00,0.0,cwc,2013-02-03 04:00:00,
2013-02-02 21:05:00,33.8,-2.2,30.47,ENE,75,0.0,-999.0,0,-99.99,,,0.00,0.0,cwc,2013-02-03 04:05:00,
2013-02-02 21:10:00,35.8,35.8,30.47,ENE,75,0.0,-999.0,100,-99.99,,,0.00,0.0,cwc,2013-02-03 04:10:00,
2013-02-02 21:15:00,35.5,35.5,30.47,ENE,75,0.0,-999.0,100,-99.99,,,0.00,0.0,cwc,2013-02-03 04:15:00,
2013-02-02 21:20:00,34.4,-1.6,30.41,ENE,75,0.0,-999.0,0,-99.99,,,0.00,0.0,cwc,2013-02-03 04:20:00,
2013-02-02 21:25:00,37.2,10.6,30.41,ENE,75,0.0,-999.0,26,-99.99,,,0.00,0.0,cwc,2013-02-03 04:25:00,
2013-02-02 21:30:00,40.5,40.5,30.41,ENE,75,0.0,-999.0,100,-99.99,,,0.00,0.0,cwc,2013-02-03 04:30:00,
2013-02-02 21:35:00,33.8,33.8,30.36,ENE,75,0.0,-999.0,100,-99.99,,,0.00,0.0,cwc,2013-02-03 04:35:00,
2013-02-02 21:40:00,33.1,33.1,30.36,ENE,75,0.0,-999.0,100,-99.99,,,0.00,0.0,cwc,2013-02-03 04:40:00,
2013-02-02 21:45:00,30.4,30.4,30.36,ENE,75,0.0,-999.0,100,-99.99,,,0.00,0.0,cwc,2013-02-03 04:45:00,
2013-02-02 21:50:00,34.1,-0.5,30.44,ENE,75,0.0,-999.0,4,-99.99,,,0.00,0.0,cwc,2013-02-03 04:50:00,
2013-02-02 22:05:00,30.3,-2.8,30.46,ENE,75,0.0,-999.0,8,-99.99,,,0.00,0.0,cwc,2013-02-03 05:05:00,
2013-02-02 22:10:00,30.4,-3.4,30.46,ENE,75,0.0,-999.0,6,-99.99,,,0.00,0.0,cwc,2013-02-03 05:10:00,
2013-02-02 22:15:00,32.7,3.2,30.46,ENE,75,0.0,-999.0,18,-99.99,,,0.00,0.0,cwc,2013-02-03 05:15:00,
2013-02-02 22:20:00,29.8,-4.4,30.40,ENE,75,0.0,-999.0,5,-99.99,,,0.00,0.0,cwc,2013-02-03 05:20:00,
2013-02-02 22:25:00,28.8,-5.4,30.40,ENE,75,0.0,-999.0,5,-99.99,,,0.00,0.0,cwc,2013-02-03 05:25:00,
2013-02-02 22:30:00,35.2,1.4,30.40,ENE,75,0.0,-999.0,6,-99.99,,,0.00,0.0,cwc,2013-02-03 05:30:00,
2013-02-02 22:35:00,36.8,36.8,30.38,ENE,75,0.0,-999.0,100,-99.99,,,0.00,0.0,cwc,2013-02-03 05:35:00,
2013-02-02 22:40:00,37.5,31.4,30.38,ENE,75,0.0,-999.0,83,-99.99,,,0.00,0.0,cwc,2013-02-03 05:40:00,
2013-02-02 22:45:00,38.3,38.3,30.38,ENE,75,0.0,-999.0,100,-99.99,,,0.00,0.0,cwc,2013-02-03 05:45:00,
2013-02-02 22:50:00,33.2,32.5,30.33,ENE,75,0.0,-999.0,98,-99.99,,,0.00,0.0,cwc,2013-02-03 05:50:00,
2013-02-02 22:55:00,31.3,31.3,30.33,ENE,75,0.0,-999.0,100,-99.99,,,0.00,0.0,cwc,2013-02-03 05:55:00,
2013-02-02 23:00:00,29.0,6.7,30.33,ENE,75,0.0,-999.0,38,-99.99,,,0.00,0.0,cwc,2013-02-03 06:00:00,
2013-02-02 23:05:00,30.9,7.5,30.41,ENE,75,0.0,-999.0,35,-99.99,,,0.00,0.0,cwc,2013-02-03 06:05:00,
2013-02-02 23:10:00,32.8,20.2,30.41,ENE,75,0.0,-999.0,65,-99.99,,,0.00,0.0,cwc,2013-02-03 06:10:00,
2013-02-02 23:15:00,32.7,29.5,30.41,ENE,75,0.0,-999.0,91,-99.99,,,0.00,0.0,cwc,2013-02-03 06:15:00,
2013-02-02 23:20:00,31.5,25.7,30.33,ENE,75,0.0,-999.0,84,-99.99,,,0.00,0.0,cwc,2013-02-03 06:20:00,
2013-02-02 23:25:00,29.7,22.5,30.33,ENE,75,0.0,-999.0,80,-99.99,,,0.00,0.0,cwc,2013-02-03 06:25:00,
2013-02-02 23:30:00,32.8,19.1,30.33,ENE,75,0.0,-999.0,62,-99.99,,,0.00,0.0,cwc,2013-02-03 06:30:00,
2013-02-02 23:35:00,32.5,22.8,30.34,ENE,75,0.0,-999.0,73,-99.99,,,0.00,0.0,cwc,2013-02-03 06:35:00,
2013-02-02 23:40:00,30.6,1.4,30.34,ENE,75,0.0,-999.0,19,-99.99,,,0.00,0.0,cwc,2013-02-03 06:40:00,
2013-02-02 23:45:00,36.2,0.2,30.34,ENE,75,0.0,-999.0,0,-99.99,,,0.00,0.0,cwc,2013-02-03 06:45:00,
2013-02-02 23:50:00,32.5,-3.5,30.33,ENE,75,0.0,-999.0,0,-99.99,,,0.00,0.0,cwc,2013-02-03 06:50:00,
2013-02-02 23:55:00,30.7,-5.3,30.33,ENE,75,0.0,-999.0,0,-99.99,,,0.00,0.0,cwc,2013-02-03 06:55:00,